Terminal Aerodrome Forecast
Issued by NWS Grand Forks, ND

Home | Current Version | Previous Version | Graphics & Text | Print | Product List | Glossary On
Versions: 1 2 3 4 5 6 7 8 9 10 11 12 13 14 15 16 17 18 19 20 21
000
FTUS43 KFGF 270500
TAFFAR
TAF
KFAR 270520Z 2706/2806 00000KT P6SM BKN250
      TEMPO 2706/2709 2SM BR SCT002
     FM271000 16008KT P6SM BKN120
     FM271400 16010KT P6SM BKN250=

USA.gov is the U.S. government's official web portal to all federal, state and local government web resources and services.